sensor_id;sensor_type;location;lat;lon;timestamp;pressure;altitude;pressure_sealevel;temperature;humidity
13209;BME280;6669;42.678;23.332;2023-05-22T00:01:44;94288.25;;;13.73;100.00
13209;BME280;6669;42.678;23.332;2023-05-22T00:04:15;94300.75;;;13.91;100.00
13209;BME280;6669;42.678;23.332;2023-05-22T00:06:47;94304.94;;;13.92;100.00
13209;BME280;6669;42.678;23.332;2023-05-22T00:09:15;94298.31;;;14.03;100.00
13209;BME280;6669;42.678;23.332;2023-05-22T00:11:43;94301.75;;;14.10;100.00
13209;BME280;6669;42.678;23.332;2023-05-22T00:14:11;94295.09;;;14.14;100.00
13209;BME280;6669;42.678;23.332;2023-05-22T00:16:41;94301.13;;;14.21;100.00
13209;BME280;6669;42.678;23.332;2023-05-22T00:19:09;94298.53;;;14.28;100.00
13209;BME280;6669;42.678;23.332;2023-05-22T00:21:39;94302.72;;;14.36;100.00
13209;BME280;6669;42.678;23.332;2023-05-22T00:24:07;94301.53;;;14.38;100.00
13209;BME280;6669;42.678;23.332;2023-05-22T00:26:35;94301.94;;;14.42;100.00
13209;BME280;6669;42.678;23.332;2023-05-22T00:29:03;94298.28;;;14.43;100.00
13209;BME280;6669;42.678;23.332;2023-05-22T00:31:32;94295.47;;;14.45;100.00
13209;BME280;6669;42.678;23.332;2023-05-22T00:34:01;94311.94;;;14.52;100.00
13209;BME280;6669;42.678;23.332;2023-05-22T00:36:29;94312.13;;;14.57;100.00
13209;BME280;6669;42.678;23.332;2023-05-22T00:38:57;94305.50;;;14.54;100.00
13209;BME280;6669;42.678;23.332;2023-05-22T00:41:25;94309.94;;;14.54;100.00
13209;BME280;6669;42.678;23.332;2023-05-22T00:43:53;94307.34;;;14.54;100.00
13209;BME280;6669;42.678;23.332;2023-05-22T00:46:21;94304.72;;;14.47;100.00
13209;BME280;6669;42.678;23.332;2023-05-22T00:48:50;94302.72;;;14.36;100.00
13209;BME280;6669;42.678;23.332;2023-05-22T00:51:20;94305.53;;;14.28;100.00
13209;BME280;6669;42.678;23.332;2023-05-22T00:53:49;94303.34;;;14.18;100.00
13209;BME280;6669;42.678;23.332;2023-05-22T00:56:17;94304.94;;;14.12;100.00
13209;BME280;6669;42.678;23.332;2023-05-22T00:58:45;94305.94;;;14.11;100.00
13209;BME280;6669;42.678;23.332;2023-05-22T01:01:14;94300.13;;;14.09;100.00
13209;BME280;6669;42.678;23.332;2023-05-22T01:03:44;94294.09;;;14.09;100.00
13209;BME280;6669;42.678;23.332;2023-05-22T01:06:14;94281.44;;;13.92;100.00
13209;BME280;6669;42.678;23.332;2023-05-22T01:08:45;94291.28;;;14.03;100.00
13209;BME280;6669;42.678;23.332;2023-05-22T01:11:17;94297.13;;;14.05;100.00
13209;BME280;6669;42.678;23.332;2023-05-22T01:13:54;94296.13;;;14.06;100.00
13209;BME280;6669;42.678;23.332;2023-05-22T01:16:27;94295.31;;;14.06;100.00
13209;BME280;6669;42.678;23.332;2023-05-22T01:19:01;94295.91;;;14.08;100.00
13209;BME280;6669;42.678;23.332;2023-05-22T01:21:43;94295.31;;;14.06;100.00
13209;BME280;6669;42.678;23.332;2023-05-22T01:27:33;94295.09;;;13.94;100.00
13209;BME280;6669;42.678;23.332;2023-05-22T01:30:23;94290.50;;;13.96;100.00
13209;BME280;6669;42.678;23.332;2023-05-22T01:32:56;94283.03;;;13.93;100.00
13209;BME280;6669;42.678;23.332;2023-05-22T01:35:25;94279.84;;;13.91;100.00
13209;BME280;6669;42.678;23.332;2023-05-22T01:37:54;94285.06;;;13.91;100.00
13209;BME280;6669;42.678;23.332;2023-05-22T01:40:24;94278.41;;;13.88;100.00
13209;BME280;6669;42.678;23.332;2023-05-22T01:42:52;94274.41;;;13.93;100.00
13209;BME280;6669;42.678;23.332;2023-05-22T01:45:20;94272.19;;;13.83;100.00
13209;BME280;6669;42.678;23.332;2023-05-22T01:47:49;94284.63;;;13.74;100.00
13209;BME280;6669;42.678;23.332;2023-05-22T01:50:19;94288.25;;;13.73;100.00
13209;BME280;6669;42.678;23.332;2023-05-22T01:52:53;94287.03;;;13.62;100.00
13209;BME280;6669;42.678;23.332;2023-05-22T01:55:27;94281.81;;;13.62;100.00
13209;BME280;6669;42.678;23.332;2023-05-22T01:58:07;94280.59;;;13.51;100.00
13209;BME280;6669;42.678;23.332;2023-05-22T02:00:39;94283.19;;;13.45;100.00
13209;BME280;6669;42.678;23.332;2023-05-22T02:03:18;94278.97;;;13.44;100.00
13209;BME280;6669;42.678;23.332;2023-05-22T02:05:52;94282.56;;;13.43;100.00
13209;BME280;6669;42.678;23.332;2023-05-22T02:08:21;94259.25;;;13.28;100.00
13209;BME280;6669;42.678;23.332;2023-05-22T02:10:51;94274.53;;;13.37;100.00
13209;BME280;6669;42.678;23.332;2023-05-22T02:13:21;94279.97;;;13.43;100.00
13209;BME280;6669;42.678;23.332;2023-05-22T02:15:50;94276.91;;;13.32;100.00
13209;BME280;6669;42.678;23.332;2023-05-22T02:18:18;94278.88;;;13.23;100.00
13209;BME280;6669;42.678;23.332;2023-05-22T02:20:49;94274.44;;;13.11;100.00
13209;BME280;6669;42.678;23.332;2023-05-22T02:23:17;94281.28;;;13.18;100.00
13209;BME280;6669;42.678;23.332;2023-05-22T02:25:45;94277.81;;;13.04;100.00
13209;BME280;6669;42.678;23.332;2023-05-22T02:28:13;94281.66;;;13.08;100.00
13209;BME280;6669;42.678;23.332;2023-05-22T02:30:41;94278.03;;;13.09;100.00
13209;BME280;6669;42.678;23.332;2023-05-22T02:33:09;94277.09;;;13.17;100.00
13209;BME280;6669;42.678;23.332;2023-05-22T02:35:37;94275.28;;;13.18;100.00
13209;BME280;6669;42.678;23.332;2023-05-22T02:38:06;94270.59;;;12.93;100.00
13209;BME280;6669;42.678;23.332;2023-05-22T02:40:34;94270.59;;;12.93;100.00
13209;BME280;6669;42.678;23.332;2023-05-22T02:43:03;94271.19;;;13.02;100.00
13209;BME280;6669;42.678;23.332;2023-05-22T02:45:31;94276.03;;;13.12;100.00
13209;BME280;6669;42.678;23.332;2023-05-22T02:47:59;94277.25;;;13.16;100.00
13209;BME280;6669;42.678;23.332;2023-05-22T02:50:29;94271.41;;;13.07;100.00
13209;BME280;6669;42.678;23.332;2023-05-22T02:52:57;94260.75;;;12.95;100.00
13209;BME280;6669;42.678;23.332;2023-05-22T02:55:26;94265.31;;;12.80;100.00
13209;BME280;6669;42.678;23.332;2023-05-22T02:57:54;94260.31;;;12.85;100.00
13209;BME280;6669;42.678;23.332;2023-05-22T03:00:22;94261.91;;;12.86;100.00
13209;BME280;6669;42.678;23.332;2023-05-22T03:02:51;94262.72;;;12.86;100.00
13209;BME280;6669;42.678;23.332;2023-05-22T03:05:19;94266.38;;;12.99;100.00
13209;BME280;6669;42.678;23.332;2023-05-22T03:07:47;94268.41;;;13.03;100.00
13209;BME280;6669;42.678;23.332;2023-05-22T03:10:16;94265.38;;;12.93;100.00
13209;BME280;6669;42.678;23.332;2023-05-22T03:12:45;94267.16;;;12.92;100.00
13209;BME280;6669;42.678;23.332;2023-05-22T03:15:14;94265.31;;;12.86;100.00
13209;BME280;6669;42.678;23.332;2023-05-22T03:17:42;94271.16;;;12.88;100.00
13209;BME280;6669;42.678;23.332;2023-05-22T03:20:10;94272.47;;;12.64;100.00
13209;BME280;6669;42.678;23.332;2023-05-22T03:22:43;94271.84;;;12.69;100.00
13209;BME280;6669;42.678;23.332;2023-05-22T03:25:11;94264.28;;;12.74;100.00
13209;BME280;6669;42.678;23.332;2023-05-22T03:27:39;94258.78;;;12.62;100.00
13209;BME280;6669;42.678;23.332;2023-05-22T03:30:09;94262.84;;;12.71;100.00
13209;BME280;6669;42.678;23.332;2023-05-22T03:32:37;94263.09;;;12.77;100.00
13209;BME280;6669;42.678;23.332;2023-05-22T03:35:06;94262.91;;;12.85;100.00
13209;BME280;6669;42.678;23.332;2023-05-22T03:37:34;94265.50;;;12.85;100.00
13209;BME280;6669;42.678;23.332;2023-05-22T03:40:02;94264.09;;;12.82;100.00
13209;BME280;6669;42.678;23.332;2023-05-22T03:42:31;94269.88;;;12.78;100.00
13209;BME280;6669;42.678;23.332;2023-05-22T03:44:59;94271.34;;;12.87;100.00
13209;BME280;6669;42.678;23.332;2023-05-22T03:47:28;94273.78;;;12.95;100.00
13209;BME280;6669;42.678;23.332;2023-05-22T03:49:57;94267.94;;;12.86;100.00
13209;BME280;6669;42.678;23.332;2023-05-22T03:52:25;94274.19;;;12.99;100.00
13209;BME280;6669;42.678;23.332;2023-05-22T03:54:53;94266.78;;;13.02;100.00
13209;BME280;6669;42.678;23.332;2023-05-22T03:57:21;94279.06;;;13.08;100.00
13209;BME280;6669;42.678;23.332;2023-05-22T03:59:48;94276.25;;;13.03;100.00
13209;BME280;6669;42.678;23.332;2023-05-22T04:02:17;94270.00;;;13.04;100.00
13209;BME280;6669;42.678;23.332;2023-05-22T04:04:47;94275.84;;;13.06;100.00
13209;BME280;6669;42.678;23.332;2023-05-22T04:07:15;94274.81;;;13.01;100.00
13209;BME280;6669;42.678;23.332;2023-05-22T04:09:44;94281.25;;;13.12;100.00
13209;BME280;6669;42.678;23.332;2023-05-22T04:12:12;94285.25;;;13.01;100.00
13209;BME280;6669;42.678;23.332;2023-05-22T04:14:40;94282.03;;;12.99;100.00
13209;BME280;6669;42.678;23.332;2023-05-22T04:17:08;94285.25;;;13.01;100.00
13209;BME280;6669;42.678;23.332;2023-05-22T04:19:37;94284.66;;;13.05;100.00
13209;BME280;6669;42.678;23.332;2023-05-22T04:22:06;94279.47;;;13.12;100.00
13209;BME280;6669;42.678;23.332;2023-05-22T04:24:34;94277.47;;;13.14;100.00
13209;BME280;6669;42.678;23.332;2023-05-22T04:27:05;94281.25;;;13.12;100.00
13209;BME280;6669;42.678;23.332;2023-05-22T04:29:35;94277.81;;;13.04;100.00
13209;BME280;6669;42.678;23.332;2023-05-22T04:32:28;94286.09;;;13.15;100.00
13209;BME280;6669;42.678;23.332;2023-05-22T04:34:56;94293.34;;;13.19;100.00
13209;BME280;6669;42.678;23.332;2023-05-22T04:37:27;94293.38;;;13.33;100.00
13209;BME280;6669;42.678;23.332;2023-05-22T04:39:57;94278.13;;;13.36;100.00
13209;BME280;6669;42.678;23.332;2023-05-22T04:42:31;94287.41;;;13.46;100.00
13209;BME280;6669;42.678;23.332;2023-05-22T04:45:00;94293.84;;;13.43;100.00
13209;BME280;6669;42.678;23.332;2023-05-22T04:47:28;94289.41;;;13.44;100.00
13209;BME280;6669;42.678;23.332;2023-05-22T04:49:57;94285.03;;;13.57;100.00
13209;BME280;6669;42.678;23.332;2023-05-22T04:52:25;94290.88;;;13.80;100.00
13209;BME280;6669;42.678;23.332;2023-05-22T04:54:55;94293.50;;;13.93;100.00
13209;BME280;6669;42.678;23.332;2023-05-22T04:57:26;94286.47;;;14.07;100.00
13209;BME280;6669;42.678;23.332;2023-05-22T04:59:54;94288.66;;;14.23;100.00
13209;BME280;6669;42.678;23.332;2023-05-22T05:02:22;94284.22;;;14.24;100.00
13209;BME280;6669;42.678;23.332;2023-05-22T05:04:50;94291.44;;;14.35;100.00
13209;BME280;6669;42.678;23.332;2023-05-22T05:07:19;94291.84;;;14.39;100.00
13209;BME280;6669;42.678;23.332;2023-05-22T05:09:47;94298.69;;;14.53;100.00
13209;BME280;6669;42.678;23.332;2023-05-22T05:12:16;94305.13;;;14.58;100.00
13209;BME280;6669;42.678;23.332;2023-05-22T05:14:44;94296.66;;;14.76;100.00
13209;BME280;6669;42.678;23.332;2023-05-22T05:17:12;94304.25;;;14.84;100.00
13209;BME280;6669;42.678;23.332;2023-05-22T05:19:40;94305.50;;;14.75;100.00
13209;BME280;6669;42.678;23.332;2023-05-22T05:22:08;94306.88;;;14.91;100.00
13209;BME280;6669;42.678;23.332;2023-05-22T05:24:36;94302.78;;;15.01;100.00
13209;BME280;6669;42.678;23.332;2023-05-22T05:27:04;94306.06;;;14.97;100.00
13209;BME280;6669;42.678;23.332;2023-05-22T05:29:36;94313.69;;;14.98;100.00
13209;BME280;6669;42.678;23.332;2023-05-22T05:32:05;94300.22;;;14.95;100.00
13209;BME280;6669;42.678;23.332;2023-05-22T05:34:33;94310.44;;;15.03;100.00
13209;BME280;6669;42.678;23.332;2023-05-22T05:37:03;94304.00;;;14.99;100.00
13209;BME280;6669;42.678;23.332;2023-05-22T05:39:31;94307.00;;;15.09;100.00
13209;BME280;6669;42.678;23.332;2023-05-22T05:41:59;94309.38;;;15.17;100.00
13209;BME280;6669;42.678;23.332;2023-05-22T05:44:27;94316.81;;;15.27;100.00
13209;BME280;6669;42.678;23.332;2023-05-22T05:46:57;94313.16;;;15.35;100.00
13209;BME280;6669;42.678;23.332;2023-05-22T05:49:25;94310.72;;;15.33;100.00
13209;BME280;6669;42.678;23.332;2023-05-22T05:51:53;94313.31;;;15.40;100.00
13209;BME280;6669;42.678;23.332;2023-05-22T05:54:21;94319.59;;;15.32;100.00
13209;BME280;6669;42.678;23.332;2023-05-22T05:56:51;94320.69;;;15.50;100.00
13209;BME280;6669;42.678;23.332;2023-05-22T05:59:19;94322.91;;;15.53;100.00
13209;BME280;6669;42.678;23.332;2023-05-22T06:01:47;94316.03;;;15.59;100.00
13209;BME280;6669;42.678;23.332;2023-05-22T06:04:17;94318.44;;;15.60;100.00
13209;BME280;6669;42.678;23.332;2023-05-22T06:06:45;94327.69;;;15.63;100.00
13209;BME280;6669;42.678;23.332;2023-05-22T06:09:13;94329.28;;;15.64;100.00
13209;BME280;6669;42.678;23.332;2023-05-22T06:11:41;94329.69;;;15.67;100.00
13209;BME280;6669;42.678;23.332;2023-05-22T06:14:09;94330.44;;;15.75;100.00
13209;BME280;6669;42.678;23.332;2023-05-22T06:16:38;94330.44;;;15.81;100.00
13209;BME280;6669;42.678;23.332;2023-05-22T06:19:06;94335.84;;;15.87;100.00
13209;BME280;6669;42.678;23.332;2023-05-22T06:21:36;94331.53;;;15.99;100.00
13209;BME280;6669;42.678;23.332;2023-05-22T06:24:04;94323.84;;;16.04;100.00
13209;BME280;6669;42.678;23.332;2023-05-22T06:26:33;94323.09;;;16.22;100.00
13209;BME280;6669;42.678;23.332;2023-05-22T06:29:01;94326.25;;;16.31;100.00
13209;BME280;6669;42.678;23.332;2023-05-22T06:31:29;94332.59;;;16.42;100.00
13209;BME280;6669;42.678;23.332;2023-05-22T06:34:01;94335.72;;;16.57;100.00
13209;BME280;6669;42.678;23.332;2023-05-22T06:36:30;94332.44;;;16.80;100.00
13209;BME280;6669;42.678;23.332;2023-05-22T06:39:01;94324.72;;;16.86;100.00
13209;BME280;6669;42.678;23.332;2023-05-22T06:41:30;94329.56;;;17.07;100.00
13209;BME280;6669;42.678;23.332;2023-05-22T06:43:59;94330.00;;;17.23;100.00
13209;BME280;6669;42.678;23.332;2023-05-22T06:46:28;94325.25;;;17.31;100.00
13209;BME280;6669;42.678;23.332;2023-05-22T06:48:56;94325.88;;;17.45;100.00
13209;BME280;6669;42.678;23.332;2023-05-22T06:51:24;94334.63;;;17.58;100.00
13209;BME280;6669;42.678;23.332;2023-05-22T06:53:52;94315.41;;;17.57;100.00
13209;BME280;6669;42.678;23.332;2023-05-22T06:56:22;94328.06;;;17.79;100.00
13209;BME280;6669;42.678;23.332;2023-05-22T06:58:50;94324.88;;;17.77;100.00
13209;BME280;6669;42.678;23.332;2023-05-22T07:01:19;94324.25;;;17.93;100.00
13209;BME280;6669;42.678;23.332;2023-05-22T07:03:47;94327.03;;;18.10;100.00
13209;BME280;6669;42.678;23.332;2023-05-22T07:06:17;94334.97;;;18.34;100.00
13209;BME280;6669;42.678;23.332;2023-05-22T07:08:45;94323.63;;;18.34;100.00
13209;BME280;6669;42.678;23.332;2023-05-22T07:11:13;94324.31;;;18.53;100.00
13209;BME280;6669;42.678;23.332;2023-05-22T07:13:42;94327.19;;;18.63;100.00
13209;BME280;6669;42.678;23.332;2023-05-22T07:16:10;94315.50;;;18.59;100.00
13209;BME280;6669;42.678;23.332;2023-05-22T07:18:38;94325.13;;;18.65;100.00
13209;BME280;6669;42.678;23.332;2023-05-22T07:21:07;94324.53;;;18.63;100.00
13209;BME280;6669;42.678;23.332;2023-05-22T07:23:35;94318.38;;;18.45;100.00
13209;BME280;6669;42.678;23.332;2023-05-22T07:26:03;94322.81;;;18.57;100.00
13209;BME280;6669;42.678;23.332;2023-05-22T07:28:31;94326.84;;;18.71;100.00
13209;BME280;6669;42.678;23.332;2023-05-22T07:31:01;94321.81;;;18.93;100.00
13209;BME280;6669;42.678;23.332;2023-05-22T07:33:29;94330.72;;;18.92;100.00
13209;BME280;6669;42.678;23.332;2023-05-22T07:35:57;94319.75;;;18.95;100.00
13209;BME280;6669;42.678;23.332;2023-05-22T07:38:26;94312.63;;;18.96;100.00
13209;BME280;6669;42.678;23.332;2023-05-22T07:40:54;94326.00;;;19.06;100.00
13209;BME280;6669;42.678;23.332;2023-05-22T07:43:22;94317.09;;;19.07;100.00
13209;BME280;6669;42.678;23.332;2023-05-22T07:45:50;94310.44;;;19.05;100.00
13209;BME280;6669;42.678;23.332;2023-05-22T07:48:21;94313.34;;;18.91;100.00
13209;BME280;6669;42.678;23.332;2023-05-22T07:50:49;94315.84;;;18.98;100.00
13209;BME280;6669;42.678;23.332;2023-05-22T07:53:17;94312.84;;;19.18;100.00
13209;BME280;6669;42.678;23.332;2023-05-22T07:55:45;94313.53;;;19.14;100.00
13209;BME280;6669;42.678;23.332;2023-05-22T07:58:13;94308.84;;;19.16;100.00
13209;BME280;6669;42.678;23.332;2023-05-22T08:00:41;94314.84;;;19.40;100.00
13209;BME280;6669;42.678;23.332;2023-05-22T08:03:09;94314.44;;;19.48;100.00
13209;BME280;6669;42.678;23.332;2023-05-22T08:05:39;94311.91;;;19.53;100.00
13209;BME280;6669;42.678;23.332;2023-05-22T08:08:07;94310.78;;;19.78;100.00
13209;BME280;6669;42.678;23.332;2023-05-22T08:10:36;94310.03;;;19.95;100.00
13209;BME280;6669;42.678;23.332;2023-05-22T08:13:07;94307.25;;;20.01;100.00
13209;BME280;6669;42.678;23.332;2023-05-22T08:15:35;94314.28;;;20.13;100.00
13209;BME280;6669;42.678;23.332;2023-05-22T08:18:03;94313.59;;;20.17;100.00
13209;BME280;6669;42.678;23.332;2023-05-22T08:20:31;94305.91;;;20.33;100.00
13209;BME280;6669;42.678;23.332;2023-05-22T08:23:01;94312.53;;;20.35;100.00
13209;BME280;6669;42.678;23.332;2023-05-22T08:25:31;94312.88;;;20.39;100.00
13209;BME280;6669;42.678;23.332;2023-05-22T08:27:59;94300.94;;;20.36;100.00
13209;BME280;6669;42.678;23.332;2023-05-22T08:30:27;94310.38;;;20.49;100.00
13209;BME280;6669;42.678;23.332;2023-05-22T08:32:55;94310.84;;;20.46;100.00
13209;BME280;6669;42.678;23.332;2023-05-22T08:35:23;94314.69;;;20.55;100.00
13209;BME280;6669;42.678;23.332;2023-05-22T08:37:51;94308.38;;;20.73;100.00
13209;BME280;6669;42.678;23.332;2023-05-22T08:40:21;94302.34;;;20.78;96.10
13209;BME280;6669;42.678;23.332;2023-05-22T08:42:50;94307.06;;;21.15;93.80
13209;BME280;6669;42.678;23.332;2023-05-22T08:45:20;94309.69;;;21.37;85.08
13209;BME280;6669;42.678;23.332;2023-05-22T08:47:51;94305.69;;;21.35;83.42
13209;BME280;6669;42.678;23.332;2023-05-22T08:50:23;94298.31;;;21.15;87.41
13209;BME280;6669;42.678;23.332;2023-05-22T08:52:54;94295.13;;;21.35;91.39
13209;BME280;6669;42.678;23.332;2023-05-22T08:55:25;94306.50;;;21.58;82.94
13209;BME280;6669;42.678;23.332;2023-05-22T08:57:53;94302.34;;;21.67;82.98
13209;BME280;6669;42.678;23.332;2023-05-22T09:00:22;94300.56;;;21.73;78.06
13209;BME280;6669;42.678;23.332;2023-05-22T09:02:51;94289.56;;;21.86;77.18
13209;BME280;6669;42.678;23.332;2023-05-22T09:05:19;94301.56;;;21.94;70.76
13209;BME280;6669;42.678;23.332;2023-05-22T09:07:53;94297.25;;;21.87;68.29
13209;BME280;6669;42.678;23.332;2023-05-22T09:10:29;94300.59;;;22.05;67.97
13209;BME280;6669;42.678;23.332;2023-05-22T09:13:04;94300.16;;;22.13;70.14
13209;BME280;6669;42.678;23.332;2023-05-22T09:15:34;94301.16;;;22.40;70.00
13209;BME280;6669;42.678;23.332;2023-05-22T09:18:03;94293.06;;;22.57;65.86
13209;BME280;6669;42.678;23.332;2023-05-22T09:20:33;94290.84;;;22.43;67.98
13209;BME280;6669;42.678;23.332;2023-05-22T09:23:10;94290.03;;;22.38;66.10
13209;BME280;6669;42.678;23.332;2023-05-22T09:25:40;94290.56;;;22.40;66.19
13209;BME280;6669;42.678;23.332;2023-05-22T09:28:10;94288.72;;;22.40;68.92
13209;BME280;6669;42.678;23.332;2023-05-22T09:33:11;94284.34;;;22.24;68.83
13209;BME280;6669;42.678;23.332;2023-05-22T09:35:40;94297.66;;;22.34;70.32
13209;BME280;6669;42.678;23.332;2023-05-22T09:38:09;94288.56;;;22.25;69.09
13209;BME280;6669;42.678;23.332;2023-05-22T09:40:40;94290.72;;;22.28;70.63
13209;BME280;6669;42.678;23.332;2023-05-22T09:43:09;94290.91;;;22.16;70.02
13209;BME280;6669;42.678;23.332;2023-05-22T09:45:38;94302.69;;;22.03;67.23
13209;BME280;6669;42.678;23.332;2023-05-22T09:48:07;94295.03;;;21.74;74.35
13209;BME280;6669;42.678;23.332;2023-05-22T09:50:35;94297.16;;;21.77;77.11
13209;BME280;6669;42.678;23.332;2023-05-22T09:53:06;94300.00;;;21.48;78.57
13209;BME280;6669;42.678;23.332;2023-05-22T09:55:35;94295.78;;;21.47;79.33
13209;BME280;6669;42.678;23.332;2023-05-22T09:58:05;94299.19;;;21.20;85.28
13209;BME280;6669;42.678;23.332;2023-05-22T10:00:35;94307.47;;;21.07;89.48
13209;BME280;6669;42.678;23.332;2023-05-22T10:03:07;94299.88;;;20.71;92.77
13209;BME280;6669;42.678;23.332;2023-05-22T10:05:42;94293.56;;;20.38;97.44
13209;BME280;6669;42.678;23.332;2023-05-22T10:08:13;94289.91;;;20.39;100.00
13209;BME280;6669;42.678;23.332;2023-05-22T10:10:46;94292.72;;;20.33;100.00
13209;BME280;6669;42.678;23.332;2023-05-22T10:13:19;94285.09;;;20.19;100.00
13209;BME280;6669;42.678;23.332;2023-05-22T10:15:47;94292.78;;;20.38;100.00
13209;BME280;6669;42.678;23.332;2023-05-22T10:18:16;94302.22;;;20.51;100.00
13209;BME280;6669;42.678;23.332;2023-05-22T10:20:44;94298.91;;;20.61;100.00
13209;BME280;6669;42.678;23.332;2023-05-22T10:23:13;94293.72;;;20.49;100.00
13209;BME280;6669;42.678;23.332;2023-05-22T10:25:42;94302.31;;;20.39;100.00
13209;BME280;6669;42.678;23.332;2023-05-22T10:28:15;94297.03;;;20.39;100.00
13209;BME280;6669;42.678;23.332;2023-05-22T10:30:51;94301.59;;;20.27;100.00
13209;BME280;6669;42.678;23.332;2023-05-22T10:33:26;94308.78;;;20.14;100.00
13209;BME280;6669;42.678;23.332;2023-05-22T10:35:57;94309.88;;;19.84;100.00
13209;BME280;6669;42.678;23.332;2023-05-22T10:38:42;94324.34;;;19.70;100.00
13209;BME280;6669;42.678;23.332;2023-05-22T10:41:15;94342.06;;;19.57;100.00
13209;BME280;6669;42.678;23.332;2023-05-22T10:43:47;94335.88;;;18.87;100.00
13209;BME280;6669;42.678;23.332;2023-05-22T10:46:17;94346.28;;;18.46;100.00
13209;BME280;6669;42.678;23.332;2023-05-22T10:48:46;94338.06;;;18.43;100.00
13209;BME280;6669;42.678;23.332;2023-05-22T10:51:19;94328.22;;;18.38;100.00
13209;BME280;6669;42.678;23.332;2023-05-22T10:53:50;94313.31;;;18.20;100.00
13209;BME280;6669;42.678;23.332;2023-05-22T10:56:19;94309.09;;;18.31;100.00
13209;BME280;6669;42.678;23.332;2023-05-22T10:58:58;94313.00;;;18.52;100.00
13209;BME280;6669;42.678;23.332;2023-05-22T11:01:30;94302.69;;;18.86;100.00
13209;BME280;6669;42.678;23.332;2023-05-22T11:04:08;94307.94;;;18.98;100.00
13209;BME280;6669;42.678;23.332;2023-05-22T11:06:38;94303.72;;;19.38;100.00
13209;BME280;6669;42.678;23.332;2023-05-22T11:09:26;94304.38;;;19.74;100.00
13209;BME280;6669;42.678;23.332;2023-05-22T11:12:13;94300.13;;;20.02;100.00
13209;BME280;6669;42.678;23.332;2023-05-22T11:14:47;94298.06;;;20.38;100.00
13209;BME280;6669;42.678;23.332;2023-05-22T11:17:21;94290.81;;;20.84;100.00
13209;BME280;6669;42.678;23.332;2023-05-22T11:19:57;94296.25;;;21.17;100.00
13209;BME280;6669;42.678;23.332;2023-05-22T11:22:33;94289.63;;;21.42;100.00
13209;BME280;6669;42.678;23.332;2023-05-22T11:25:07;94302.50;;;21.55;100.00
13209;BME280;6669;42.678;23.332;2023-05-22T11:27:37;94316.81;;;20.93;100.00
13209;BME280;6669;42.678;23.332;2023-05-22T11:30:07;94324.22;;;20.22;100.00
13209;BME280;6669;42.678;23.332;2023-05-22T11:32:37;94335.19;;;19.56;100.00
13209;BME280;6669;42.678;23.332;2023-05-22T11:35:06;94331.31;;;18.59;100.00
13209;BME280;6669;42.678;23.332;2023-05-22T11:37:37;94335.28;;;18.14;100.00
13209;BME280;6669;42.678;23.332;2023-05-22T11:40:07;94338.22;;;17.45;100.00
13209;BME280;6669;42.678;23.332;2023-05-22T11:42:35;94341.81;;;17.13;100.00
13209;BME280;6669;42.678;23.332;2023-05-22T11:45:05;94342.63;;;17.14;100.00
13209;BME280;6669;42.678;23.332;2023-05-22T11:47:33;94355.47;;;17.04;100.00
13209;BME280;6669;42.678;23.332;2023-05-22T11:50:03;94344.50;;;16.88;100.00
13209;BME280;6669;42.678;23.332;2023-05-22T11:52:42;94343.94;;;17.05;100.00
13209;BME280;6669;42.678;23.332;2023-05-22T11:55:11;94338.53;;;17.18;100.00
13209;BME280;6669;42.678;23.332;2023-05-22T11:57:44;94351.28;;;17.33;100.00
13209;BME280;6669;42.678;23.332;2023-05-22T12:00:15;94347.34;;;17.42;100.00
13209;BME280;6669;42.678;23.332;2023-05-22T12:02:43;94347.19;;;17.56;100.00
13209;BME280;6669;42.678;23.332;2023-05-22T12:05:13;94349.16;;;17.42;100.00
13209;BME280;6669;42.678;23.332;2023-05-22T12:07:42;94355.06;;;17.56;100.00
13209;BME280;6669;42.678;23.332;2023-05-22T12:10:12;94337.81;;;17.11;100.00
13209;BME280;6669;42.678;23.332;2023-05-22T12:12:43;94352.31;;;16.51;100.00
13209;BME280;6669;42.678;23.332;2023-05-22T12:15:17;94353.28;;;16.06;100.00
13209;BME280;6669;42.678;23.332;2023-05-22T12:17:46;94337.81;;;15.59;100.00
13209;BME280;6669;42.678;23.332;2023-05-22T12:20:15;94342.50;;;15.44;100.00
13209;BME280;6669;42.678;23.332;2023-05-22T12:22:43;94339.19;;;15.16;100.00
13209;BME280;6669;42.678;23.332;2023-05-22T12:25:13;94330.53;;;15.16;100.00
13209;BME280;6669;42.678;23.332;2023-05-22T12:27:42;94331.03;;;15.38;100.00
13209;BME280;6669;42.678;23.332;2023-05-22T12:30:12;94324.72;;;15.52;100.00
13209;BME280;6669;42.678;23.332;2023-05-22T12:32:46;94327.56;;;15.90;100.00
13209;BME280;6669;42.678;23.332;2023-05-22T12:35:18;94321.91;;;15.93;100.00
13209;BME280;6669;42.678;23.332;2023-05-22T12:37:48;94311.50;;;15.73;100.00
13209;BME280;6669;42.678;23.332;2023-05-22T12:40:16;94324.53;;;16.18;100.00
13209;BME280;6669;42.678;23.332;2023-05-22T12:42:44;94309.97;;;16.22;100.00
13209;BME280;6669;42.678;23.332;2023-05-22T12:45:13;94329.59;;;16.82;100.00
13209;BME280;6669;42.678;23.332;2023-05-22T12:47:47;94325.97;;;17.20;100.00
13209;BME280;6669;42.678;23.332;2023-05-22T12:50:17;94329.56;;;17.56;100.00
13209;BME280;6669;42.678;23.332;2023-05-22T12:52:45;94324.16;;;17.70;100.00
13209;BME280;6669;42.678;23.332;2023-05-22T12:55:13;94324.63;;;17.78;100.00
13209;BME280;6669;42.678;23.332;2023-05-22T12:57:41;94329.56;;;17.87;100.00
13209;BME280;6669;42.678;23.332;2023-05-22T13:00:11;94331.44;;;17.98;100.00
13209;BME280;6669;42.678;23.332;2023-05-22T13:02:39;94331.03;;;18.13;100.00
13209;BME280;6669;42.678;23.332;2023-05-22T13:05:08;94331.03;;;18.25;100.00
13209;BME280;6669;42.678;23.332;2023-05-22T13:07:37;94320.66;;;18.42;100.00
13209;BME280;6669;42.678;23.332;2023-05-22T13:10:06;94307.28;;;18.67;100.00